TSJ weather

Tsushima Airport
Tsushima, Nagasaki Prefecture, Japan

Public forecast

Using degrees Celsius for public forecast. Weather courtesy of forecast.io.

METAR (pilot weather report)

Report is more than 6 hours old.

Retrieved 2019/05/19 11:00 UTC (7 hours ago):

RJDT 191100Z 15006KT 100V210 9999 FEW010 SCT050 19/18 Q1008

TAF (pilot weather forecast)

Closest forecast is Gimhae International Airport, 57.1 nm (105.8 km) NNW. Retrieved 2019/05/19 12:00 UTC (6 hours ago):

TAF RKPK 191100Z 1912/2018 15008KT 9999 SCT015 BKN030 TN18/1921Z TX27/2005Z TEMPO 1912/1916 4800 -RA BR BKN015 OVC030 BECMG 1916/1917 18008KT 3200 -RA BKN010 OVC020 BECMG 1920/1921 4800 BR SCT015 BKN030 BECMG 2000/2001 18006KT 9999 NSW SCT015 SCT030